Date,TemperatureHighF,TemperatureAvgF,TemperatureLowF,DewpointHighF,DewpointAvgF,DewpointLowF,HumidityHigh,HumidityAvg,HumidityLow,PressureMaxIn,PressureMinIn,WindSpeedMaxMPH,WindSpeedAvgMPH,GustSpeedMaxMPH,PrecipitationSumIn
2013-6-1,86.8,74.1,67.1,71.2,66.9,63.3,93,80,57,29.65,29.47,25,6,30,0.43
2013-6-2,76.8,67.4,54.2,66.3,61.8,48.3,95,83,62,29.62,29.37,25,7,30,0.89
2013-6-3,63.2,55.1,49.2,48.3,44.8,42.0,82,69,50,29.74,29.62,21,5,22,0.01
2013-6-4,67.5,57.8,51.5,49.2,43.3,36.3,77,60,33,29.89,29.74,17,4,18,0.00
2013-6-5,60.7,56.9,50.3,52.0,47.0,41.1,79,70,53,29.95,29.79,17,4,17,0.00
2013-6-6,59.1,53.4,49.6,56.1,49.3,42.3,97,87,55,29.80,29.55,20,5,23,0.66
2013-6-7,55.0,51.9,48.1,54.1,50.6,46.7,97,96,95,29.59,29.54,8,1,11,0.01
2013-6-8,67.2,58.4,52.0,58.7,54.7,50.6,97,88,72,29.77,29.55,12,2,15,0.04
2013-6-9,68.3,61.8,53.6,58.6,54.9,51.3,93,79,65,29.91,29.77,9,1,11,0.00
2013-6-10,66.7,60.7,54.6,64.9,57.0,53.1,97,88,77,29.81,29.39,15,2,17,1.32
2013-6-11,70.3,61.2,55.5,63.0,57.7,52.4,97,89,72,29.57,29.36,16,3,17,0.31
2013-6-12,69.0,60.9,53.9,59.0,55.0,51.8,95,82,63,29.65,29.45,11,0,12,0.00
2013-6-13,64.3,58.5,55.0,59.5,55.4,52.9,96,90,76,29.51,29.26,20,3,20,0.72
2013-6-14,72.2,61.7,53.4,58.9,55.5,50.0,96,81,61,29.71,29.51,13,2,14,0.01
2013-6-15,75.3,64.0,52.8,57.6,51.5,43.6,82,65,36,29.78,29.63,16,2,16,0.00
2013-6-16,78.2,68.1,63.1,66.3,60.8,55.9,94,78,63,29.64,29.41,17,5,23,0.24
2013-6-17,75.2,67.5,60.9,63.6,60.2,56.0,94,78,58,29.64,29.50,17,2,17,0.00
2013-6-18,70.3,61.8,55.9,57.5,53.9,49.1,87,76,55,29.74,29.61,15,2,16,0.00
2013-6-19,68.8,60.0,54.7,54.1,48.4,41.5,92,67,42,29.91,29.74,14,2,17,0.00
2013-6-20,72.1,61.1,48.6,57.2,50.8,44.4,89,70,47,29.97,29.89,9,2,10,0.00
2013-6-21,73.8,65.1,53.7,61.7,55.5,49.3,88,72,52,29.98,29.86,11,2,13,0.00
2013-6-22,86.5,73.0,65.6,72.5,63.4,56.2,92,73,56,29.86,29.69,17,4,23,0.04
2013-6-23,90.1,78.1,69.0,72.0,68.2,65.2,94,74,48,29.76,29.65,19,3,20,0.14
2013-6-24,88.8,79.9,72.7,73.5,68.9,65.2,82,70,53,29.73,29.61,18,4,19,0.00
2013-6-25,83.3,76.2,71.5,72.4,68.3,64.8,87,77,65,29.64,29.48,16,3,20,0.00
2013-6-26,86.2,75.4,68.5,72.4,67.4,63.8,90,77,62,29.53,29.47,15,3,16,0.01
2013-6-27,74.5,70.1,67.0,69.6,65.9,62.9,92,87,79,29.51,29.35,13,1,13,0.00
2013-6-28,69.3,66.1,62.5,66.5,63.9,60.4,95,93,90,29.35,29.22,17,2,17,0.55
2013-6-29,75.5,66.5,61.8,65.0,61.7,60.0,95,85,64,29.41,29.21,14,3,14,0.06
2013-6-30,74.0,68.2,63.3,65.5,62.6,59.9,92,83,71,29.65,29.41,10,1,12,0.00